Terminal Aerodrome Forecast
Issued by NWS Grand Forks, ND

Home | Current Version | Previous Version | Text Only | Print | Product List | Glossary Off
Versions: 1 2 3 4 5 6 7 8 9 10 11 12 13 14

482
FTUS43 KFGF 151736
TAFFAR
TAF
KFAR 151736Z 1518/1618 34022G32KT 1SM BLSN BKN008 OVC015
      TEMPO 1518/1521 1/2SM -SN BLSN OVC007
     FM152200 34018G28KT 2SM BLSN SCT010 BKN220
     FM160400 34014KT P6SM SCT220
     FM161200 31010KT P6SM SCT220=

USA.gov is the U.S. government's official web portal to all federal, state and local government web resources and services.